Latest Coastal Weather Observations for Rundle Island

IDQ60701

Issued at 10:35 pm EST Tuesday 29 July 2014 (issued every 10 minutes, with the page automatically refreshed every 10 minutes)

About coastal observations | Map of coastal stations | Coastal observations for QLD | Marine services | Other Formats
Station Details ID: 039322 Name: RUNDLE ISLAND Lat: -23.53 Lon: 151.28 Height: 19.8 m
Data from the previous 72 hours. | See also: Recent months at Rundle Island
Date/Time
EST
Temp

°C
Wind Pressure Rain
since 9am
mm
Weather Cloud Vis
km
Sea
Height
m
Swell
Dir
 
Speed
knots
Gust
knots
hPa Trend Height
m
Period
s
Dir
29/10:30pm 19.9 N 5 6 1021.9 - - - - - - - - -
29/10:00pm 19.8 N 5 6 1021.9 - - - - - - - - -
29/09:30pm 20.0 N 6 7 1021.8 - - - - - - - - -
29/09:00pm 20.1 N 6 7 1021.6 - - - - - - - - -
29/08:30pm 20.2 N 7 8 1021.5 - - - - - - - - -
29/08:00pm 20.2 N 8 9 1021.4 - - - - - - - - -
29/07:30pm 20.1 N 9 10 1021.4 - - - - - - - - -
29/07:00pm 19.9 N 9 10 1021.0 - - - - - - - - -
29/06:30pm 19.7 N 6 7 1021.0 - - - - - - - - -
29/06:00pm 19.6 N 7 8 1020.6 - - - - - - - - -
29/05:30pm 19.7 N 7 8 1020.4 - - - - - - - - -
29/05:00pm 19.9 N 8 9 1020.0 - - - - - - - - -
29/04:30pm 20.0 N 8 8 1019.9 - - - - - - - - -
29/04:00pm 20.1 N 7 8 1019.8 - - - - - - - - -
29/03:30pm 20.2 N 7 8 1020.0 - - - - - - - - -
29/03:00pm 20.2 N 6 7 1020.1 - - - - - - - - -
29/02:30pm 20.4 N 5 6 1020.3 - - - - - - - - -
29/02:00pm 20.5 N 5 5 1020.4 - - - - - - - - -
29/01:30pm 20.5 N 5 5 1020.8 - - - - - - - - -
29/01:00pm 20.1 N 5 5 1021.0 - - - - - - - - -
29/12:30pm 20.8 N 4 5 1021.5 - - - - - - - - -
29/12:00pm 21.4 CALM 0 0 1021.9 - - - - - - - - -
29/11:30am 21.8 CALM 0 0 1022.7 - - - - - - - - -
29/11:00am 21.9 CALM 0 0 1023.0 - - - - - - - - -
29/10:30am 22.4 CALM 0 0 1023.4 - - - - - - - - -
29/10:00am 21.4 CALM 0 0 1023.6 - - - - - - - - -
29/09:30am 19.1 CALM 0 0 1023.8 - - - - - - - - -
29/09:00am 18.4 SW 2 3 1023.8 - - - - - - - - -
29/08:30am 17.9 SW 2 3 1023.9 - - - - - - - - -
29/08:00am 17.8 SSW 5 6 1023.7 - - - - - - - - -
29/07:30am 17.8 SSW 5 6 1023.5 - - - - - - - - -
29/07:00am 17.5 SSW 5 6 1023.0 - - - - - - - - -
29/06:30am 17.2 SSW 4 5 1022.8 - - - - - - - - -
29/06:00am 17.1 SSW 5 5 1022.4 - - - - - - - - -
29/05:30am 16.9 SW 3 4 1022.2 - - - - - - - - -
29/05:00am 17.4 SW 5 6 1021.8 - - - - - - - - -
29/04:30am 17.6 S 5 6 1021.4 - - - - - - - - -
29/04:00am 17.5 S 7 8 1021.2 - - - - - - - - -
29/03:30am 17.6 S 7 8 1021.1 - - - - - - - - -
29/03:00am 17.8 SSW 6 7 1021.1 - - - - - - - - -
29/02:30am 17.9 SSW 5 6 1021.2 - - - - - - - - -
29/02:00am 17.9 SW 5 6 1021.2 - - - - - - - - -
29/01:30am 18.1 WSW 3 5 1021.4 - - - - - - - - -
29/01:00am 19.9 ENE 4 5 1021.4 - - - - - - - - -
29/12:30am 20.0 ENE 5 6 1021.7 - - - - - - - - -
29/12:00am 20.1 ENE 7 8 1021.7 - - - - - - - - -
 
Date/Time
EST
Temp

°C
Wind Pressure Rain
since 9am
mm
Weather Cloud Vis
km
Sea
Height
m
Swell
Dir
 
Speed
knots
Gust
knots
hPa Trend Height
m
Period
s
Dir
28/11:30pm 20.2 NE 8 9 1022.0 - - - - - - - - -
28/11:00pm 20.1 NE 6 8 1021.9 - - - - - - - - -
28/10:30pm 20.1 ENE 7 8 1022.0 - - - - - - - - -
28/10:00pm 20.1 NE 8 8 1021.9 - - - - - - - - -
28/09:30pm 20.1 NE 7 8 1021.9 - - - - - - - - -
28/09:00pm 20.2 NE 8 10 1021.6 - - - - - - - - -
28/08:30pm 20.2 ENE 9 10 1021.7 - - - - - - - - -
28/08:00pm 20.2 ENE 9 10 1021.3 - - - - - - - - -
28/07:30pm 20.1 ENE 9 9 1021.3 - - - - - - - - -
28/07:00pm 20.1 ENE 9 10 1020.9 - - - - - - - - -
28/06:30pm 20.1 ENE 10 11 1020.7 - - - - - - - - -
28/06:00pm 20.2 NE 10 11 1020.3 - - - - - - - - -
28/05:30pm 20.2 ENE 9 10 1020.1 - - - - - - - - -
28/05:00pm 20.5 ENE 9 10 1019.8 - - - - - - - - -
28/04:30pm 20.6 ENE 9 10 1019.8 - - - - - - - - -
28/04:00pm 20.3 E 9 10 1019.5 - - - - - - - - -
28/03:30pm 20.5 E 9 9 1019.6 - - - - - - - - -
28/03:00pm 20.4 E 8 9 1019.6 - - - - - - - - -
28/02:30pm 20.2 E 8 9 1020.1 - - - - - - - - -
28/02:00pm 19.9 E 9 10 1020.4 - - - - - - - - -
28/01:30pm 20.0 ESE 9 9 1021.0 - - - - - - - - -
28/01:00pm 19.8 ESE 8 10 1021.5 - - - - - - - - -
28/12:30pm 19.9 ESE 8 10 1022.2 - - - - - - - - -
28/12:00pm 19.2 SE 9 10 1022.6 - - - - - - - - -
28/11:30am 19.3 SE 10 11 1023.1 - - - - - - - - -
28/11:00am 19.6 SSE 10 11 1023.4 - - - - - - - - -
28/10:30am 19.0 S 9 10 1023.8 - - - - - - - - -
28/10:00am 18.9 S 9 11 1024.0 - - - - - - - - -
28/09:30am 18.5 S 10 11 1024.1 - - - - - - - - -
28/09:00am 17.7 S 10 11 1023.8 - - - - - - - - -
28/08:30am 17.5 S 10 12 1023.7 - - - - - - - - -
28/08:00am 16.9 S 11 13 1023.4 - - - - - - - - -
28/07:30am 16.9 S 10 12 1023.2 - - - - - - - - -
28/07:00am 16.8 S 12 13 1022.6 - - - - - - - - -
28/06:30am 17.0 S 11 12 1022.4 - - - - - - - - -
28/06:00am 17.3 S 10 12 1022.1 - - - - - - - - -
28/05:30am 17.0 S 9 10 1021.9 - - - - - - - - -
28/05:00am 17.1 S 9 11 1021.6 - - - - - - - - -
28/04:30am 17.5 S 10 11 1021.4 - - - - - - - - -
28/04:00am 17.7 S 10 11 1021.2 - - - - - - - - -
28/03:30am 17.8 S 10 12 1021.4 - - - - - - - - -
28/03:00am 17.6 S 8 9 1021.5 - - - - - - - - -
28/02:30am 17.6 SSW 8 9 1021.7 - - - - - - - - -
28/02:00am 17.8 S 8 9 1021.8 - - - - - - - - -
28/01:30am 18.0 SSW 7 8 1022.1 - - - - - - - - -
28/01:00am 18.3 SSW 7 8 1022.3 - - - - - - - - -
28/12:30am 18.3 S 6 8 1022.6 - - - - - - - - -
28/12:00am 18.2 SSW 3 4 1022.6 - - - - - - - - -
 
Date/Time
EST
Temp

°C
Wind Pressure Rain
since 9am
mm
Weather Cloud Vis
km
Sea
Height
m
Swell
Dir
 
Speed
knots
Gust
knots
hPa Trend Height
m
Period
s
Dir
27/11:30pm 18.5 SSW 4 5 1022.9 - - - - - - - - -
27/11:00pm 18.6 SSW 4 5 1022.8 - - - - - - - - -
27/10:30pm 18.8 SSW 3 4 1023.1 - - - - - - - - -
27/10:00pm 18.8 SSW 4 5 1022.9 - - - - - - - - -
27/09:30pm 18.9 SW 3 4 1022.9 - - - - - - - - -
27/09:00pm 18.9 SW 3 3 1022.8 - - - - - - - - -
27/08:30pm 19.3 CALM 0 0 1022.8 - - - - - - - - -
27/08:00pm 19.7 E 3 4 1022.4 - - - - - - - - -
27/07:30pm 19.6 E 4 4 1022.1 - - - - - - - - -
27/07:00pm 19.6 ENE 3 4 1021.6 - - - - - - - - -
27/06:30pm 19.9 NE 3 3 1021.4 - - - - - - - - -
27/06:00pm 19.9 N 3 4 1020.8 - - - - - - - - -
27/05:30pm 20.1 NE 4 5 1020.7 - - - - - - - - -
27/05:00pm 20.6 ENE 6 7 1020.5 - - - - - - - - -
27/04:30pm 20.7 ENE 6 7 1020.3 - - - - - - - - -
27/04:00pm 21.2 N 6 7 1020.1 - - - - - - - - -
27/03:30pm 21.1 NE 7 8 1020.1 - - - - - - - - -
27/03:00pm 20.8 NE 8 8 1019.9 - - - - - - - - -
27/02:30pm 21.0 ENE 9 10 1020.2 - - - - - - - - -
27/02:00pm 20.9 ENE 8 9 1020.5 - - - - - - - - -
27/01:30pm 21.1 ENE 8 8 1021.1 - - - - - - - - -
27/01:00pm 20.6 ESE 7 8 1021.5 - - - - - - - - -
27/12:30pm 20.9 SE 5 6 1022.0 - - - - - - - - -
27/12:00pm 20.2 SSE 5 6 1022.4 - - - - - - - - -
27/11:30am 20.0 SSE 3 4 1023.0 - - - - - - - - -
27/11:00am 20.1 SSE 3 4 1023.3 - - - - - - - - -
27/10:30am 19.9 S 4 5 1023.7 - - - - - - - - -
27/10:00am 19.1 S 5 6 1023.9 - - - - - - - - -
27/09:30am 18.3 S 5 7 1024.3 - - - - - - - - -
27/09:00am 17.9 S 5 6 1024.3 - - - - - - - - -
27/08:30am 17.4 S 6 8 1024.2 - - - - - - - - -
27/08:00am 17.6 S 5 6 1023.8 - - - - - - - - -
27/07:30am 17.4 SSE 5 7 1023.7 - - - - - - - - -
27/07:00am 17.3 S 5 6 1023.4 - - - - - - - - -
27/06:30am 17.5 S 6 7 1023.2 - - - - - - - - -
27/06:00am 17.9 S 5 7 1022.8 - - - - - - - - -
27/05:30am 18.0 S 8 9 1022.7 - - - - - - - - -
27/05:00am 18.1 S 7 8 1022.5 - - - - - - - - -
27/04:30am 18.2 SSW 5 6 1022.4 - - - - - - - - -
27/04:00am 18.2 S 5 5 1022.2 - - - - - - - - -
27/03:30am 18.3 S 6 7 1022.3 - - - - - - - - -
27/03:00am 18.8 S 5 6 1022.6 - - - - - - - - -
27/02:30am 18.8 SE 3 4 1022.8 - - - - - - - - -
27/02:00am 18.8 SE 3 4 1023.0 - - - - - - - - -
27/01:30am 18.9 SSE 4 4 1023.4 - - - - - - - - -
27/01:00am 18.9 S 5 5 1023.6 - - - - - - - - -
27/12:30am 19.0 SSE 5 5 1024.0 - - - - - - - - -
27/12:00am 19.0 SE 6 7 1024.2 - - - - - - - - -
 
Date/Time
EST
Temp

°C
Wind Pressure Rain
since 9am
mm
Weather Cloud Vis
km
Sea
Height
m
Swell
Dir
 
Speed
knots
Gust
knots
hPa Trend Height
m
Period
s
Dir
26/11:30pm 19.3 SE 8 9 1024.3 - - - - - - - - -
26/11:00pm 19.3 SSE 7 8 1024.5 - - - - - - - - -

Other Formats:

Comma delimited format used in spreadsheet applications
http://www.bom.gov.au/fwo/IDQ60701/IDQ60701.94378.axf

JavaScript Object Notation format (JSON) in row-major order
http://www.bom.gov.au/fwo/IDQ60701/IDQ60701.94378.json